This is the latest recevied weather packets stored in our database for station/object WA4TPR. If no packets are shown the sender has not sent any weather packets the latest 10 day(s).
| Time | Temp. | Humidity | Pressure | Rain* | Wind** | Luminosity | Snow |
|---|---|---|---|---|---|---|---|
| 1777673682 | 31.11° C | 57% | 1013.1 hPa | 0 mm | - | 307 W/m² | - |
| 1777673380 | 30.56° C | 57% | 1012.8 hPa | 0 mm | - | 176 W/m² | - |
| 1777673078 | 31.11° C | 56% | 1013.1 hPa | 0 mm | - | 121 W/m² | - |
| 1777672773 | 31.11° C | 55% | 1013.1 hPa | 0 mm | - | 116 W/m² | - |
| 1777672471 | 31.11° C | 55% | 1013.1 hPa | 0 mm | - | 128 W/m² | - |
| 1777672166 | 31.67° C | 53% | 1013.1 hPa | 0 mm | - | 123 W/m² | - |
| 1777671862 | 31.67° C | 52% | 1013 hPa | 0 mm | - | 189 W/m² | - |
| 1777671557 | 32.22° C | 50% | 1012.9 hPa | 0 mm | - | 181 W/m² | - |
| 1777671254 | 32.78° C | 49% | 1013 hPa | 0 mm | - | 310 W/m² | - |
| 1777670950 | 33.89° C | 45% | 1013.1 hPa | 0 mm | - | 371 W/m² | - |
| 1777670647 | 33.33° C | 46% | 1013 hPa | 0 mm | - | 469 W/m² | - |
| 1777670343 | 32.22° C | 48% | 1012.9 hPa | 0 mm | - | 454 W/m² | - |
| 1777670041 | 31.67° C | 49% | 1013.1 hPa | 0 mm | - | 130 W/m² | - |
| 1777669738 | 32.22° C | 47% | 1013 hPa | 0 mm | - | 478 W/m² | - |
| 1777669435 | 33.33° C | 46% | 1013.3 hPa | 0 mm | - | 495 W/m² | - |
| 1777669131 | 33.33° C | 45% | 1013.3 hPa | 0 mm | - | 521 W/m² | - |
| 1777668828 | 33.33° C | 46% | 1013.4 hPa | 0 mm | - | 550 W/m² | - |
| 1777668525 | 33.33° C | 46% | 1013.4 hPa | 0 mm | - | 576 W/m² | - |
| 1777668221 | 33.33° C | 46% | 1013.5 hPa | 0 mm | - | 297 W/m² | - |
| 1777667918 | 33.33° C | 46% | 1013.4 hPa | 0 mm | - | 522 W/m² | - |
| 1777667615 | 32.78° C | 47% | 1013.6 hPa | 0 mm | - | 553 W/m² | - |
| 1777667312 | 32.22° C | 47% | 1013.6 hPa | 0 mm | - | 590 W/m² | - |
| 1777667009 | 32.78° C | 48% | 1013.8 hPa | 0 mm | - | 172 W/m² | - |
| 1777666706 | 32.78° C | 46% | 1013.5 hPa | 0 mm | - | 372 W/m² | - |
| 1777666403 | 33.33° C | 46% | 1013.8 hPa | 0 mm | - | 672 W/m² | - |
* Rain latest hour (hover to see other rain measurements)
** Current wind speed in m/s (hover to see current wind gust speed)